Atlin Airport


Codes: CYSQ/
Name: Atlin Airport
City: Atlin
Country: Canada
Elevation: 2348 ft.
Wikipedia:

Photos at Atlin Airport


   Photos courtesy of SpottingLog. You can add your own sightings and photos by signing up for a free trial today.



No photos found.

Weather at Atlin Airport


Time (UTC)DescriptionTempratureWindCloud coverageVisibilityPressureHumidity
15-Apr-2024 18:00Scattered Clouds-6°C4 mph, NW50%10000m1032hPa88%
15-Apr-2024 21:00Scattered Clouds-3°C2 mph, NW27%10000m1031hPa78%
16-Apr-2024 00:00Few Clouds1°C2 mph, NW19%10000m1031hPa64%
16-Apr-2024 03:00Few Clouds-1°C2 mph, S18%10000m1031hPa80%
16-Apr-2024 06:00Few Clouds-7°C2 mph, SE13%10000m1036hPa89%
16-Apr-2024 09:00Few Clouds-8°C2 mph, E18%10000m1037hPa89%
16-Apr-2024 12:00Scattered Clouds-9°C2 mph, SE44%10000m1038hPa90%
16-Apr-2024 15:00Scattered Clouds-6°C2 mph, SE39%10000m1036hPa86%
16-Apr-2024 18:00Scattered Clouds-1°C2 mph, S28%10000m1034hPa76%
16-Apr-2024 21:00Clear Sky2°C2 mph, S4%10000m1033hPa73%
17-Apr-2024 00:00Clear Sky3°C2 mph, S5%10000m1033hPa70%
17-Apr-2024 03:00Clear Sky1°C2 mph, S3%10000m1033hPa81%
17-Apr-2024 06:00Clear Sky-4°C2 mph, SE3%10000m1037hPa87%
17-Apr-2024 09:00Clear Sky-6°C2 mph, SE8%10000m1038hPa88%
17-Apr-2024 12:00Few Clouds-7°C2 mph, SE13%10000m1039hPa89%
17-Apr-2024 15:00Few Clouds-4°C2 mph, SE18%10000m1038hPa84%
17-Apr-2024 18:00Few Clouds1°C2 mph, S14%10000m1036hPa75%
17-Apr-2024 21:00Clear Sky4°C2 mph, S4%10000m1034hPa73%
18-Apr-2024 00:00Clear Sky4°C2 mph, S7%10000m1034hPa70%
18-Apr-2024 03:00Clear Sky3°C2 mph, S10%10000m1033hPa82%
18-Apr-2024 06:00Clear Sky-2°C2 mph, S6%10000m1036hPa86%
18-Apr-2024 09:00Clear Sky-3°C2 mph, SE8%10000m1036hPa88%
18-Apr-2024 12:00Few Clouds-3°C2 mph, S11%10000m1036hPa89%
18-Apr-2024 15:00Few Clouds-2°C2 mph, SE15%10000m1035hPa83%
18-Apr-2024 18:00Few Clouds3°C2 mph, S11%10000m1032hPa70%
18-Apr-2024 21:00Clear Sky6°C2 mph, S3%10000m1030hPa63%
19-Apr-2024 00:00Clear Sky6°C2 mph, SW8%10000m1029hPa64%
19-Apr-2024 03:00Few Clouds4°C0 mph, SW14%10000m1029hPa81%
19-Apr-2024 06:00Few Clouds-1°C0 mph, E12%10000m1030hPa82%
19-Apr-2024 09:00Clear Sky-2°C0 mph, NE3%10000m1030hPa80%
19-Apr-2024 12:00Clear Sky-2°C0 mph, N3%10000m1029hPa80%
19-Apr-2024 15:00Clear Sky-0°C0 mph, NW8%10000m1027hPa74%
19-Apr-2024 18:00Clear Sky4°C0 mph, SW8%10000m1024hPa67%
19-Apr-2024 21:00Scattered Clouds7°C2 mph, SW30%10000m1022hPa63%
20-Apr-2024 00:00Scattered Clouds7°C2 mph, SW29%10000m1020hPa66%
20-Apr-2024 03:00Few Clouds5°C2 mph, SW13%10000m1019hPa81%
20-Apr-2024 06:00Few Clouds1°C0 mph, SW13%10000m1020hPa86%
20-Apr-2024 09:00Few Clouds-0°C0 mph, S12%10000m1019hPa84%
20-Apr-2024 12:00Clear Sky-1°C0 mph, SW10%10000m1018hPa82%
20-Apr-2024 15:00Few Clouds1°C0 mph, W12%10000m1016hPa74%